Roatan, Honduras
Current Conditions -  °F | °C
As of 11:00 PM on Wednesday 22 Oct 2014 (Local Time) from MHLC Reporting Station
Broken Clouds Broken Clouds  
Wind Chill: 77°   Ceiling: 20000
Heat Index: 78°   Visibility: 6mi
Dew Point: 73°   Wind: 0mph
Humidity: 89%   Direction: NA
Pressure: 29.8"   Gusts: NA
Location:  16.33°N, 86.52°W
Report Text: MHLC 230500Z 00000KT 9999 FEW026 BKN200 25/23 Q1009 A2979NOSIG
Loading
Personal Weather Stations






























Interactive Weather Map New forecast layout! Learn more

10-Day Weather Forecast

Advertisements
Track Severe Weather on mobile